createdAt,value
2022-10-13T00:01:00.923Z,100340.34
2022-10-13T00:03:29.120Z,100342.16
2022-10-13T00:05:57.159Z,100344.75
2022-10-13T00:08:26.298Z,100345.41
2022-10-13T00:10:54.339Z,100345.06
2022-10-13T00:13:22.358Z,100339.84
2022-10-13T00:15:51.729Z,100343.56
2022-10-13T00:18:20.039Z,100339.25
2022-10-13T00:20:49.548Z,100346.59
2022-10-13T00:23:18.609Z,100348.16
2022-10-13T00:25:48.453Z,100348.16
2022-10-13T00:28:17.701Z,100345.69
2022-10-13T00:30:46.397Z,100348.22
2022-10-13T00:33:15.841Z,100344.84
2022-10-13T00:35:45.936Z,100341.84
2022-10-13T00:38:14.640Z,100342.69
2022-10-13T00:40:47.132Z,100339.03
2022-10-13T00:43:20.193Z,100342.53
2022-10-13T00:45:50.750Z,100343.50
2022-10-13T00:48:22.100Z,100347.78
2022-10-13T00:50:50.378Z,100346.03
2022-10-13T00:53:20.853Z,100346.88
2022-10-13T00:55:49.806Z,100354.09
2022-10-13T00:58:19.920Z,100343.88
2022-10-13T01:00:50.331Z,100340.06
2022-10-13T01:03:21.198Z,100334.91
2022-10-13T01:05:50.025Z,100337.16
2022-10-13T01:08:19.637Z,100341.50
2022-10-13T01:10:57.337Z,100337.19
2022-10-13T01:13:35.590Z,100342.97
2022-10-13T01:16:10.678Z,100336.16
2022-10-13T01:18:46.423Z,100332.97
2022-10-13T01:21:26.336Z,100337.06
2022-10-13T01:24:15.514Z,100323.22
2022-10-13T01:27:20.159Z,100327.69
2022-10-13T01:30:16.214Z,100327.63
2022-10-13T01:33:11.075Z,100319.03
2022-10-13T01:35:58.323Z,100320.75
2022-10-13T01:38:35.119Z,100321.28
2022-10-13T01:41:11.142Z,100318.56
2022-10-13T01:43:43.587Z,100316.66
2022-10-13T01:46:17.457Z,100314.06
2022-10-13T01:48:46.749Z,100313.75
2022-10-13T01:51:23.178Z,100320.81
2022-10-13T01:53:53.527Z,100318.75
2022-10-13T01:56:21.958Z,100308.91
2022-10-13T01:58:52.391Z,100306.72
2022-10-13T02:01:39.131Z,100317.78
2022-10-13T02:04:16.798Z,100314.44
2022-10-13T02:06:49.146Z,100311.91
2022-10-13T02:09:25.349Z,100300.47
2022-10-13T02:12:00.566Z,100315.00
2022-10-13T02:14:32.853Z,100311.84
2022-10-13T02:17:06.362Z,100304.22
2022-10-13T02:19:37.891Z,100309.50
2022-10-13T02:22:07.386Z,100305.22
2022-10-13T02:24:36.012Z,100304.41
2022-10-13T02:27:05.919Z,100311.38
2022-10-13T02:29:34.416Z,100303.25
2022-10-13T02:32:03.855Z,100308.50
2022-10-13T02:34:32.011Z,100304.53
2022-10-13T02:37:00.005Z,100303.44
2022-10-13T02:39:28.441Z,100309.19
2022-10-13T02:41:56.395Z,100304.44
2022-10-13T02:44:24.935Z,100306.88
2022-10-13T02:46:52.888Z,100310.03
2022-10-13T02:49:22.283Z,100307.97
2022-10-13T02:51:51.412Z,100307.97
2022-10-13T02:54:19.608Z,100304.59
2022-10-13T02:56:47.613Z,100307.19
2022-10-13T02:59:15.569Z,100297.34
2022-10-13T03:01:44.656Z,100296.69
2022-10-13T03:04:13.212Z,100299.19
2022-10-13T03:06:42.615Z,100299.19
2022-10-13T03:09:10.582Z,100297.44
2022-10-13T03:11:39.030Z,100298.09
2022-10-13T03:14:07.370Z,100300.47
2022-10-13T03:16:35.388Z,100293.16
2022-10-13T03:19:03.444Z,100294.28
2022-10-13T03:21:31.942Z,100292.56
2022-10-13T03:24:01.533Z,100295.44
2022-10-13T03:26:29.538Z,100295.44
2022-10-13T03:28:57.761Z,100293.16
2022-10-13T03:31:26.609Z,100291.28
2022-10-13T03:33:54.612Z,100286.84
2022-10-13T03:36:22.687Z,100294.00
2022-10-13T03:38:50.708Z,100287.13
2022-10-13T03:41:20.859Z,100288.78
2022-10-13T03:43:49.190Z,100288.28
2022-10-13T03:46:19.238Z,100278.09
2022-10-13T03:48:48.803Z,100281.75
2022-10-13T03:51:20.917Z,100285.91
2022-10-13T03:53:50.161Z,100279.09
2022-10-13T03:56:21.858Z,100278.78
2022-10-13T03:58:53.940Z,100284.22
2022-10-13T04:01:22.980Z,100279.09
2022-10-13T04:03:51.122Z,100280.69
2022-10-13T04:06:19.469Z,100281.50
2022-10-13T04:08:47.746Z,100280.88
2022-10-13T04:11:17.478Z,100276.72
2022-10-13T04:13:47.196Z,100282.28
2022-10-13T04:16:17.319Z,100280.34
2022-10-13T04:18:46.690Z,100283.19
2022-10-13T04:21:16.213Z,100287.34
2022-10-13T04:23:44.265Z,100292.44
2022-10-13T04:26:18.343Z,100295.47
2022-10-13T04:28:49.488Z,100295.16
2022-10-13T04:31:17.644Z,100297.22
2022-10-13T04:33:45.923Z,100297.38
2022-10-13T04:36:15.833Z,100292.13
2022-10-13T04:38:44.678Z,100293.91
2022-10-13T04:41:13.671Z,100298.84
2022-10-13T04:43:41.819Z,100293.13
2022-10-13T04:46:16.523Z,100297.25
2022-10-13T04:48:44.775Z,100295.81
2022-10-13T04:51:14.887Z,100304.72
2022-10-13T04:53:43.163Z,100300.91
2022-10-13T04:56:12.968Z,100296.28
2022-10-13T04:58:42.072Z,100295.38
2022-10-13T05:01:18.845Z,100304.91
2022-10-13T05:03:52.795Z,100297.41
2022-10-13T05:06:22.968Z,100308.53
2022-10-13T05:08:51.920Z,100303.09
2022-10-13T05:11:20.801Z,100306.91
2022-10-13T05:13:49.121Z,100305.50
2022-10-13T05:16:19.908Z,100310.06
2022-10-13T05:18:48.910Z,100301.28
2022-10-13T05:21:19.365Z,100306.50
2022-10-13T05:23:54.405Z,100298.56
2022-10-13T05:26:24.711Z,100304.44
2022-10-13T05:28:52.859Z,100306.50
2022-10-13T05:31:24.363Z,100311.56
2022-10-13T05:33:53.364Z,100313.13
2022-10-13T05:36:23.484Z,100315.00
2022-10-13T05:38:53.435Z,100314.84
2022-10-13T05:41:22.220Z,100317.31
2022-10-13T05:43:50.701Z,100311.84
2022-10-13T05:46:18.879Z,100321.84
2022-10-13T05:48:48.255Z,100330.78
2022-10-13T05:51:20.444Z,100326.75
2022-10-13T05:53:56.901Z,100339.13
2022-10-13T05:56:31.812Z,100333.19
2022-10-13T05:59:03.082Z,100333.13
2022-10-13T06:01:34.089Z,100330.59
2022-10-13T06:04:10.166Z,100328.81
2022-10-13T06:06:38.809Z,100324.09
2022-10-13T06:09:07.422Z,100330.31
2022-10-13T06:11:35.406Z,100337.88
2022-10-13T06:14:03.703Z,100337.59
2022-10-13T06:16:31.641Z,100338.63
2022-10-13T06:18:59.630Z,100340.06
2022-10-13T06:21:29.380Z,100345.09
2022-10-13T06:23:57.308Z,100345.81
2022-10-13T06:26:25.426Z,100346.03
2022-10-13T06:28:58.403Z,100338.03
2022-10-13T06:31:28.110Z,100332.72
2022-10-13T06:33:56.353Z,100335.31
2022-10-13T06:36:24.574Z,100328.50
2022-10-13T06:38:54.361Z,100321.59
2022-10-13T06:41:22.444Z,100322.84
2022-10-13T06:43:50.561Z,100326.72
2022-10-13T06:46:18.673Z,100332.97
2022-10-13T06:48:46.824Z,100322.19
2022-10-13T06:51:15.415Z,100330.22
2022-10-13T06:53:44.221Z,100327.56
2022-10-13T06:56:14.423Z,100325.41
2022-10-13T06:58:44.102Z,100332.72
2022-10-13T07:01:15.357Z,100325.09
2022-10-13T07:03:44.035Z,100327.69
2022-10-13T07:06:16.115Z,100332.94
2022-10-13T07:08:44.666Z,100324.44
2022-10-13T07:11:17.468Z,100332.28
2022-10-13T07:13:46.894Z,100325.44
2022-10-13T07:16:15.583Z,100319.56
2022-10-13T07:18:44.082Z,100314.03
2022-10-13T07:21:12.813Z,100312.72
2022-10-13T07:23:40.987Z,100317.72
2022-10-13T07:26:10.002Z,100312.97
2022-10-13T07:28:40.879Z,100320.72
2022-10-13T07:31:12.016Z,100309.53
2022-10-13T07:33:40.698Z,100311.31
2022-10-13T07:36:11.449Z,100306.00
2022-10-13T07:38:40.756Z,100301.97
2022-10-13T07:41:11.811Z,100303.72
2022-10-13T07:43:43.297Z,100292.94
2022-10-13T07:46:14.400Z,100299.34
2022-10-13T07:48:43.031Z,100287.53
2022-10-13T07:51:13.967Z,100288.47
2022-10-13T07:53:45.267Z,100279.38
2022-10-13T07:56:15.147Z,100281.59
2022-10-13T07:58:46.903Z,100285.19
2022-10-13T08:01:16.471Z,100284.66
2022-10-13T08:03:49.068Z,100282.75
2022-10-13T08:06:18.737Z,100294.50
2022-10-13T08:08:46.977Z,100284.34
2022-10-13T08:11:17.280Z,100279.72
2022-10-13T08:13:50.159Z,100273.50
2022-10-13T08:16:18.177Z,100268.56
2022-10-13T08:18:46.668Z,100274.50
2022-10-13T08:24:06.451Z,100265.81
2022-10-13T08:26:34.915Z,100276.81
2022-10-13T08:31:53.210Z,100260.50
2022-10-13T08:34:22.052Z,100270.09
2022-10-13T08:36:53.029Z,100261.03
2022-10-13T08:39:22.359Z,100256.78
2022-10-13T08:41:51.428Z,100252.78
2022-10-13T08:47:22.115Z,100251.28
2022-10-13T08:49:50.312Z,100258.13
2022-10-13T08:52:22.232Z,100253.56
2022-10-13T08:54:51.583Z,100259.00
2022-10-13T08:57:22.693Z,100252.06
2022-10-13T08:59:54.284Z,100256.88
2022-10-13T09:02:25.031Z,100258.69
2022-10-13T09:04:54.658Z,100254.03
2022-10-13T09:07:26.163Z,100259.59
2022-10-13T09:09:55.975Z,100252.00
2022-10-13T09:12:25.392Z,100250.13
2022-10-13T09:15:05.328Z,100245.97
2022-10-13T09:17:34.807Z,100235.41
2022-10-13T09:20:07.678Z,100236.44
2022-10-13T09:22:37.234Z,100238.47
2022-10-13T09:25:21.731Z,100226.19
2022-10-13T09:27:52.493Z,100225.72
2022-10-13T09:30:32.069Z,100228.53
2022-10-13T09:33:16.710Z,100216.53
2022-10-13T09:35:47.467Z,100217.03
2022-10-13T09:38:18.314Z,100215.34
2022-10-13T09:40:58.927Z,100220.16
2022-10-13T09:43:31.438Z,100214.41
2022-10-13T09:46:02.849Z,100207.06
2022-10-13T09:48:33.696Z,100196.97
2022-10-13T09:51:02.888Z,100200.88
2022-10-13T09:53:35.974Z,100194.72
2022-10-13T09:56:18.550Z,100202.94
2022-10-13T09:58:52.504Z,100186.47
2022-10-13T10:01:27.061Z,100185.84
2022-10-13T10:03:56.610Z,100185.06
2022-10-13T10:06:27.777Z,100178.81
2022-10-13T10:09:04.136Z,100176.13
2022-10-13T10:11:36.247Z,100168.34
2022-10-13T10:14:17.185Z,100169.91
2022-10-13T10:16:51.953Z,100162.47
2022-10-13T10:19:26.125Z,100158.16
2022-10-13T10:22:04.326Z,100151.78
2022-10-13T10:24:42.030Z,100149.09
2022-10-13T10:29:56.260Z,100138.50
2022-10-13T10:32:34.742Z,100136.59
2022-10-13T10:35:11.369Z,100123.66
2022-10-13T10:37:54.740Z,100117.00
2022-10-13T10:40:36.310Z,100115.84
2022-10-13T10:43:42.984Z,100104.84
2022-10-13T10:46:18.457Z,100109.16
2022-10-13T10:48:50.514Z,100105.22
2022-10-13T10:51:19.986Z,100100.53
2022-10-13T10:53:57.634Z,100099.75
2022-10-13T10:56:33.775Z,100100.16
2022-10-13T10:59:24.226Z,100089.53
2022-10-13T11:02:03.289Z,100088.34
2022-10-13T11:04:43.724Z,100088.38
2022-10-13T11:07:16.328Z,100085.22
2022-10-13T11:10:03.298Z,100077.78
2022-10-13T11:12:50.249Z,100073.44
2022-10-13T11:15:24.858Z,100062.44
2022-10-13T11:17:53.095Z,100055.78
2022-10-13T11:20:58.717Z,100057.72
2022-10-13T11:23:34.787Z,100052.19
2022-10-13T11:26:33.014Z,100047.50
2022-10-13T11:29:01.368Z,100039.66
2022-10-13T11:31:49.789Z,100031.75
2022-10-13T11:34:31.156Z,100035.25
2022-10-13T11:37:02.425Z,100030.06
2022-10-13T11:40:01.444Z,100023.09
2022-10-13T11:43:05.072Z,100017.97
2022-10-13T11:45:56.998Z,100022.72
2022-10-13T11:48:54.929Z,100016.44
2022-10-13T11:51:32.374Z,100010.09
2022-10-13T11:54:13.415Z,100011.63
2022-10-13T11:56:49.121Z,100012.75
2022-10-13T11:59:23.143Z,100006.81
2022-10-13T12:01:57.128Z,99999.75
2022-10-13T12:04:27.370Z,100000.22
2022-10-13T12:06:59.377Z,100004.56
2022-10-13T12:09:31.543Z,99996.34
2022-10-13T12:12:02.913Z,99990.03
2022-10-13T12:14:40.203Z,99989.59
2022-10-13T12:17:23.734Z,99995.81
2022-10-13T12:19:54.968Z,99993.44
2022-10-13T12:22:23.164Z,99992.59
2022-10-13T12:25:03.615Z,99992.97
2022-10-13T12:27:33.823Z,99986.72
2022-10-13T12:30:02.803Z,99991.06
2022-10-13T12:32:33.911Z,99985.94
2022-10-13T12:35:17.203Z,99985.06
2022-10-13T12:37:45.932Z,99975.66
2022-10-13T12:40:18.664Z,99989.75
2022-10-13T12:42:47.593Z,99977.13
2022-10-13T12:45:18.871Z,99971.19
2022-10-13T12:47:52.280Z,99964.50
2022-10-13T12:50:40.084Z,99958.94
2022-10-13T12:53:20.006Z,99969.56
2022-10-13T12:55:58.705Z,99953.44
2022-10-13T12:58:30.331Z,99956.56
2022-10-13T13:01:17.663Z,99956.91
2022-10-13T13:03:46.175Z,99947.97
2022-10-13T13:06:28.466Z,99935.81
2022-10-13T13:09:30.612Z,99934.63
2022-10-13T13:12:27.594Z,99929.03
2022-10-13T13:14:56.648Z,99934.53
2022-10-13T13:17:53.335Z,99941.16
2022-10-13T13:20:26.253Z,99935.31
2022-10-13T13:22:54.396Z,99932.19
2022-10-13T13:25:22.514Z,99939.25
2022-10-13T13:27:53.692Z,99935.28
2022-10-13T13:30:23.569Z,99934.53
2022-10-13T13:32:52.063Z,99930.88
2022-10-13T13:35:20.531Z,99936.06
2022-10-13T13:37:51.018Z,99930.16
2022-10-13T13:40:22.797Z,99930.16
2022-10-13T13:42:52.437Z,99932.97
2022-10-13T13:45:22.613Z,99929.03
2022-10-13T13:47:51.132Z,99922.03
2022-10-13T13:50:23.581Z,99920.41
2022-10-13T13:52:52.044Z,99914.16
2022-10-13T13:55:20.217Z,99912.97
2022-10-13T13:57:48.579Z,99908.66
2022-10-13T14:00:19.688Z,99918.81
2022-10-13T14:02:48.097Z,99920.41
2022-10-13T14:05:18.635Z,99921.25
2022-10-13T14:07:46.555Z,99923.28
2022-10-13T14:10:14.787Z,99925.22
2022-10-13T14:12:43.441Z,99924.78
2022-10-13T14:15:12.546Z,99925.13
2022-10-13T14:17:42.997Z,99924.34
2022-10-13T14:20:13.213Z,99930.63
2022-10-13T14:22:41.541Z,99925.94
2022-10-13T14:25:10.872Z,99924.78
2022-10-13T14:27:38.876Z,99925.22
2022-10-13T14:30:08.089Z,99916.19
2022-10-13T14:32:39.806Z,99907.97
2022-10-13T14:35:09.917Z,99906.41
2022-10-13T14:37:38.194Z,99896.63
2022-10-13T14:40:07.505Z,99893.22
2022-10-13T14:42:35.484Z,99893.59
2022-10-13T14:45:03.576Z,99905.81
2022-10-13T14:47:31.650Z,99881.06
2022-10-13T14:50:01.317Z,99882.28
2022-10-13T14:52:30.918Z,99885.03
2022-10-13T14:54:58.953Z,99890.56
2022-10-13T14:57:27.424Z,99886.25
2022-10-13T15:00:00.888Z,99886.66
2022-10-13T15:02:30.015Z,99883.16
2022-10-13T15:04:58.192Z,99892.63
2022-10-13T15:07:27.910Z,99900.56
2022-10-13T15:10:06.386Z,99899.06
2022-10-13T15:12:36.508Z,99899.03
2022-10-13T15:15:06.317Z,99896.72
2022-10-13T15:17:36.854Z,99904.97
2022-10-13T15:20:05.579Z,99902.22
2022-10-13T15:22:33.814Z,99914.84
2022-10-13T15:25:04.620Z,99915.66
2022-10-13T15:27:32.667Z,99915.28
2022-10-13T15:30:00.866Z,99912.16
2022-10-13T15:32:29.378Z,99911.78
2022-10-13T15:34:57.423Z,99911.38
2022-10-13T15:37:25.705Z,99905.91
2022-10-13T15:39:57.445Z,99905.91
2022-10-13T15:42:27.389Z,99903.97
2022-10-13T15:45:11.539Z,99909.84
2022-10-13T15:47:40.492Z,99910.28
2022-10-13T15:50:10.094Z,99915.78
2022-10-13T15:52:41.462Z,99905.22
2022-10-13T15:55:10.158Z,99907.56
2022-10-13T15:57:40.055Z,99907.56
2022-10-13T16:00:10.380Z,99911.88
2022-10-13T16:02:38.357Z,99912.28
2022-10-13T16:05:07.873Z,99905.22
2022-10-13T16:07:36.160Z,99915.03
2022-10-13T16:10:04.404Z,99908.75
2022-10-13T16:12:33.208Z,99913.47
2022-10-13T16:15:02.668Z,99910.75
2022-10-13T16:17:30.767Z,99914.22
2022-10-13T16:19:58.817Z,99918.53
2022-10-13T16:22:27.665Z,99922.06
2022-10-13T16:24:56.346Z,99930.28
2022-10-13T16:27:24.764Z,99934.56
2022-10-13T16:29:52.982Z,99930.22
2022-10-13T16:32:23.326Z,99930.53
2022-10-13T16:34:51.486Z,99931.31
2022-10-13T16:37:19.901Z,99928.53
2022-10-13T16:39:51.657Z,99924.97
2022-10-13T16:42:20.627Z,99930.34
2022-10-13T16:44:48.783Z,99930.28
2022-10-13T16:47:18.677Z,99923.59
2022-10-13T16:49:48.751Z,99929.81
2022-10-13T16:52:16.946Z,99930.16
2022-10-13T16:54:45.079Z,99935.25
2022-10-13T16:57:13.637Z,99939.91
2022-10-13T16:59:42.115Z,99937.94
2022-10-13T17:02:15.459Z,99936.38
2022-10-13T17:04:47.954Z,99934.00
2022-10-13T17:07:17.914Z,99935.53
2022-10-13T17:09:46.331Z,99938.28
2022-10-13T17:12:14.917Z,99941.00
2022-10-13T17:14:43.362Z,99943.31
2022-10-13T17:17:13.955Z,99938.25
2022-10-13T17:19:42.219Z,99947.16
2022-10-13T17:22:10.275Z,99944.81
2022-10-13T17:24:42.958Z,99949.44
2022-10-13T17:27:11.700Z,99947.41
2022-10-13T17:29:39.765Z,99947.72
2022-10-13T17:32:08.052Z,99950.00
2022-10-13T17:34:37.484Z,99942.91
2022-10-13T17:37:14.579Z,99947.97
2022-10-13T17:39:45.555Z,99945.16
2022-10-13T17:42:13.685Z,99943.22
2022-10-13T17:44:42.843Z,99951.38
2022-10-13T17:47:11.064Z,99943.91
2022-10-13T17:49:40.254Z,99954.00
2022-10-13T17:52:08.421Z,99948.50
2022-10-13T17:54:36.444Z,99950.03
2022-10-13T17:57:06.135Z,99951.13
2022-10-13T17:59:34.131Z,99936.63
2022-10-13T18:02:02.432Z,99934.25
2022-10-13T18:04:30.999Z,99940.44
2022-10-13T18:09:45.034Z,99937.66
2022-10-13T18:12:14.503Z,99937.56
2022-10-13T18:14:42.836Z,99935.16
2022-10-13T18:17:11.116Z,99948.34
2022-10-13T18:19:40.503Z,99942.06
2022-10-13T18:22:08.671Z,99950.59
2022-10-13T18:24:36.729Z,99936.47
2022-10-13T18:27:05.946Z,99945.38
2022-10-13T18:29:36.571Z,99946.44
2022-10-13T18:32:06.092Z,99944.78
2022-10-13T18:34:34.558Z,99945.97
2022-10-13T18:37:02.610Z,99946.28
2022-10-13T18:39:31.121Z,99952.56
2022-10-13T18:41:59.575Z,99952.81
2022-10-13T18:44:27.618Z,99962.53
2022-10-13T18:46:57.477Z,99967.69
2022-10-13T18:49:31.089Z,99965.66
2022-10-13T18:52:00.015Z,99954.72
2022-10-13T18:54:30.269Z,99955.84
2022-10-13T18:56:59.289Z,99955.50
2022-10-13T18:59:27.388Z,99967.00
2022-10-13T19:01:57.446Z,99965.06
2022-10-13T19:04:26.887Z,99966.84
2022-10-13T19:06:54.887Z,99971.06
2022-10-13T19:09:24.997Z,99972.94
2022-10-13T19:11:53.193Z,99975.47
2022-10-13T19:14:21.245Z,99971.00
2022-10-13T19:16:49.284Z,99967.06
2022-10-13T19:19:18.855Z,99972.38
2022-10-13T19:21:46.836Z,99974.34
2022-10-13T19:24:15.405Z,99969.59
2022-10-13T19:26:43.442Z,99974.22
2022-10-13T19:29:15.670Z,99975.38
2022-10-13T19:31:44.205Z,99985.25
2022-10-13T19:34:13.645Z,99991.56
2022-10-13T19:36:44.820Z,99989.00
2022-10-13T19:39:16.304Z,99988.47
2022-10-13T19:41:45.302Z,99994.50
2022-10-13T19:44:13.594Z,99982.63
2022-10-13T19:46:42.376Z,99976.75
2022-10-13T19:49:11.612Z,99968.22
2022-10-13T19:51:42.957Z,99977.91
2022-10-13T19:54:11.341Z,99972.75
2022-10-13T19:56:39.528Z,99978.97
2022-10-13T19:59:07.581Z,99973.19
2022-10-13T20:01:39.999Z,99972.31
2022-10-13T20:04:08.629Z,99968.94
2022-10-13T20:06:37.161Z,99968.22
2022-10-13T20:09:07.293Z,99990.13
2022-10-13T20:11:36.176Z,99994.06
2022-10-13T20:14:04.211Z,99990.50
2022-10-13T20:16:32.422Z,99994.22
2022-10-13T20:19:01.706Z,99992.56
2022-10-13T20:21:30.418Z,99986.09
2022-10-13T20:23:58.734Z,100000.94
2022-10-13T20:26:28.411Z,99996.75
2022-10-13T20:28:58.254Z,99999.19
2022-10-13T20:31:27.146Z,100007.75
2022-10-13T20:33:56.251Z,100007.31
2022-10-13T20:36:26.896Z,99995.38
2022-10-13T20:38:55.627Z,99996.78
2022-10-13T20:41:25.634Z,99992.50
2022-10-13T20:43:57.850Z,99986.38
2022-10-13T20:46:26.265Z,99981.69
2022-10-13T20:49:10.316Z,99977.03
2022-10-13T20:51:38.858Z,99969.66
2022-10-13T20:54:07.709Z,99972.00
2022-10-13T20:56:35.895Z,99970.00
2022-10-13T20:59:10.460Z,99967.34
2022-10-13T21:01:39.096Z,99970.00
2022-10-13T21:04:07.200Z,99963.34
2022-10-13T21:06:36.033Z,99955.22
2022-10-13T21:09:05.433Z,99964.13
2022-10-13T21:11:33.403Z,99973.22
2022-10-13T21:14:03.019Z,99958.81
2022-10-13T21:16:32.517Z,99959.97
2022-10-13T21:19:00.884Z,99968.84
2022-10-13T21:21:31.953Z,99972.00
2022-10-13T21:24:01.771Z,99973.72
2022-10-13T21:26:31.504Z,99977.41
2022-10-13T21:28:59.811Z,99972.63
2022-10-13T21:31:28.286Z,99961.28
2022-10-13T21:33:59.008Z,99963.16
2022-10-13T21:36:29.292Z,99959.94
2022-10-13T21:38:59.395Z,99961.38
2022-10-13T21:41:28.881Z,99966.19
2022-10-13T21:43:57.575Z,99961.16
2022-10-13T21:46:28.544Z,99957.22
2022-10-13T21:48:59.957Z,99951.69
2022-10-13T21:51:30.420Z,99953.25
2022-10-13T21:54:02.417Z,99948.13
2022-10-13T21:56:33.785Z,99951.97
2022-10-13T21:59:02.273Z,99943.09
2022-10-13T22:01:30.804Z,99952.53
2022-10-13T22:04:02.265Z,99945.75
2022-10-13T22:06:32.057Z,99945.69
2022-10-13T22:09:01.769Z,99952.91
2022-10-13T22:11:31.728Z,99945.44
2022-10-13T22:14:00.449Z,99953.44
2022-10-13T22:16:30.471Z,99950.59
2022-10-13T22:19:00.092Z,99958.19
2022-10-13T22:21:30.001Z,99973.28
2022-10-13T22:23:59.484Z,99956.94
2022-10-13T22:26:29.688Z,99962.97
2022-10-13T22:28:58.221Z,99959.75
2022-10-13T22:31:26.684Z,99965.88
2022-10-13T22:33:55.286Z,99964.28
2022-10-13T22:36:26.321Z,99964.75
2022-10-13T22:38:58.132Z,99964.28
2022-10-13T22:41:26.417Z,99965.72
2022-10-13T22:43:56.669Z,99959.22
2022-10-13T22:46:27.615Z,99962.47
2022-10-13T22:48:56.334Z,99953.34
2022-10-13T22:51:27.907Z,99959.84
2022-10-13T22:53:56.587Z,99956.34
2022-10-13T22:56:26.201Z,99957.28
2022-10-13T22:58:55.969Z,99962.34
2022-10-13T23:01:26.079Z,99955.88
2022-10-13T23:03:57.318Z,99958.06
2022-10-13T23:06:28.196Z,99960.06
2022-10-13T23:08:56.993Z,99953.06
2022-10-13T23:11:24.972Z,99954.75
2022-10-13T23:13:53.087Z,99961.44
2022-10-13T23:16:23.770Z,99952.38
2022-10-13T23:18:52.567Z,99951.66
2022-10-13T23:21:24.567Z,99953.53
2022-10-13T23:23:57.351Z,99954.31
2022-10-13T23:26:25.688Z,99960.56
2022-10-13T23:28:53.798Z,99947.94
2022-10-13T23:31:22.124Z,99958.22
2022-10-13T23:33:50.129Z,99952.41
2022-10-13T23:36:21.510Z,99956.53
2022-10-13T23:38:50.253Z,99956.91
2022-10-13T23:41:19.733Z,99963.47
2022-10-13T23:43:47.709Z,99959.69
2022-10-13T23:46:15.763Z,99954.41
2022-10-13T23:48:44.575Z,99953.09
2022-10-13T23:51:15.199Z,99954.72
2022-10-13T23:53:45.328Z,99948.81
2022-10-13T23:56:14.199Z,99947.16
2022-10-13T23:58:44.973Z,99942.16
